Weather at Spanish Cay Airport

Public forecast

Using degrees Celsius for public forecast. Weather courtesy of forecast.io.

Closest aviation weather report (METAR) to Spanish Cay Airport

Report is more than 6 hours old.

Closest report is Grand Bahama International Airport, 66.1 nm (122.4 km) WSW. Retrieved 2020/10/22 00:00 UTC (8 hours ago):

MYGF 220000Z 07005KT 9999 VCTS VCSH SCT016CB SCT050 BKN120 25/23 A3000

Closest aviation forecast (TAF) to Spanish Cay Airport

Forecast is more than 6 hours old.

Closest forecast is Grand Bahama International Airport, 66.1 nm (122.4 km) WSW. Retrieved 2020-10-22 00:07 UTC (8 hours ago):

TAF MYGF 212230Z 2200/2224 08012KT 9999 SHRA SCT016CB SCT050 BKN120